sensor_id;sensor_type;location;lat;lon;timestamp;temperature;humidity
75430;DHT22;64127;51.488;5.462;2023-02-01T00:01:04;6.80;99.90
75430;DHT22;64127;51.488;5.462;2023-02-01T00:03:37;6.80;99.90
75430;DHT22;64127;51.488;5.462;2023-02-01T00:06:09;6.80;99.90
75430;DHT22;64127;51.488;5.462;2023-02-01T00:08:41;6.80;99.90
75430;DHT22;64127;51.488;5.462;2023-02-01T00:11:14;6.70;99.90
75430;DHT22;64127;51.488;5.462;2023-02-01T00:13:46;6.70;99.90
75430;DHT22;64127;51.488;5.462;2023-02-01T00:16:20;6.70;99.90
75430;DHT22;64127;51.488;5.462;2023-02-01T00:19:15;6.60;99.90
75430;DHT22;64127;51.488;5.462;2023-02-01T00:21:47;6.60;99.90
75430;DHT22;64127;51.488;5.462;2023-02-01T00:24:19;6.60;99.90
75430;DHT22;64127;51.488;5.462;2023-02-01T00:26:51;6.60;99.90
75430;DHT22;64127;51.488;5.462;2023-02-01T00:29:23;6.60;99.90
75430;DHT22;64127;51.488;5.462;2023-02-01T00:31:55;6.60;99.90
75430;DHT22;64127;51.488;5.462;2023-02-01T00:34:27;6.50;99.90
75430;DHT22;64127;51.488;5.462;2023-02-01T00:36:59;6.50;99.90
75430;DHT22;64127;51.488;5.462;2023-02-01T00:39:33;6.50;99.90
75430;DHT22;64127;51.488;5.462;2023-02-01T00:42:05;6.50;99.90
75430;DHT22;64127;51.488;5.462;2023-02-01T00:44:37;6.50;99.90
75430;DHT22;64127;51.488;5.462;2023-02-01T00:47:09;6.40;99.90
75430;DHT22;64127;51.488;5.462;2023-02-01T00:49:41;6.40;99.90
75430;DHT22;64127;51.488;5.462;2023-02-01T00:52:13;6.40;99.90
75430;DHT22;64127;51.488;5.462;2023-02-01T00:54:45;6.40;99.90
75430;DHT22;64127;51.488;5.462;2023-02-01T00:57:17;6.30;99.90
75430;DHT22;64127;51.488;5.462;2023-02-01T00:59:49;6.30;99.90
75430;DHT22;64127;51.488;5.462;2023-02-01T01:02:21;6.30;99.90
75430;DHT22;64127;51.488;5.462;2023-02-01T01:04:53;6.30;99.90
75430;DHT22;64127;51.488;5.462;2023-02-01T01:07:25;6.30;99.90
75430;DHT22;64127;51.488;5.462;2023-02-01T01:09:58;6.20;99.90
75430;DHT22;64127;51.488;5.462;2023-02-01T01:12:30;6.20;99.90
75430;DHT22;64127;51.488;5.462;2023-02-01T01:15:02;6.20;99.90
75430;DHT22;64127;51.488;5.462;2023-02-01T01:17:35;6.20;99.90
75430;DHT22;64127;51.488;5.462;2023-02-01T01:20:07;6.10;99.90
75430;DHT22;64127;51.488;5.462;2023-02-01T01:22:40;6.10;99.90
75430;DHT22;64127;51.488;5.462;2023-02-01T01:25:12;6.10;99.90
75430;DHT22;64127;51.488;5.462;2023-02-01T01:27:44;6.10;99.90
75430;DHT22;64127;51.488;5.462;2023-02-01T01:30:16;6.10;99.90
75430;DHT22;64127;51.488;5.462;2023-02-01T01:32:48;6.10;99.90
75430;DHT22;64127;51.488;5.462;2023-02-01T01:35:20;6.10;99.90
75430;DHT22;64127;51.488;5.462;2023-02-01T01:37:52;6.00;99.90
75430;DHT22;64127;51.488;5.462;2023-02-01T01:40:24;6.00;99.90
75430;DHT22;64127;51.488;5.462;2023-02-01T01:42:57;6.00;99.90
75430;DHT22;64127;51.488;5.462;2023-02-01T01:45:34;6.00;99.90
75430;DHT22;64127;51.488;5.462;2023-02-01T01:48:25;6.00;99.90
75430;DHT22;64127;51.488;5.462;2023-02-01T01:51:07;5.90;99.90
75430;DHT22;64127;51.488;5.462;2023-02-01T01:54:02;5.90;99.90
75430;DHT22;64127;51.488;5.462;2023-02-01T01:56:40;5.90;99.90
75430;DHT22;64127;51.488;5.462;2023-02-01T01:59:13;5.90;99.90
75430;DHT22;64127;51.488;5.462;2023-02-01T02:01:46;5.90;99.90
75430;DHT22;64127;51.488;5.462;2023-02-01T02:04:19;5.80;99.90
75430;DHT22;64127;51.488;5.462;2023-02-01T02:06:59;5.80;99.90
75430;DHT22;64127;51.488;5.462;2023-02-01T02:09:34;5.80;99.90
75430;DHT22;64127;51.488;5.462;2023-02-01T02:12:06;5.80;99.90
75430;DHT22;64127;51.488;5.462;2023-02-01T02:14:38;5.80;99.90
75430;DHT22;64127;51.488;5.462;2023-02-01T02:24:21;5.80;99.90
75430;DHT22;64127;51.488;5.462;2023-02-01T02:46:14;5.90;99.90
75430;DHT22;64127;51.488;5.462;2023-02-01T02:49:21;5.80;99.90
75430;DHT22;64127;51.488;5.462;2023-02-01T02:52:12;5.90;99.90
75430;DHT22;64127;51.488;5.462;2023-02-01T02:55:08;5.90;99.90
75430;DHT22;64127;51.488;5.462;2023-02-01T02:57:43;5.90;99.90
75430;DHT22;64127;51.488;5.462;2023-02-01T03:00:35;5.80;99.90
75430;DHT22;64127;51.488;5.462;2023-02-01T03:03:27;5.90;99.90
75430;DHT22;64127;51.488;5.462;2023-02-01T03:06:17;5.80;99.90
75430;DHT22;64127;51.488;5.462;2023-02-01T03:08:50;5.90;99.90
75430;DHT22;64127;51.488;5.462;2023-02-01T03:11:25;5.90;99.90
75430;DHT22;64127;51.488;5.462;2023-02-01T03:14:21;5.80;99.90
75430;DHT22;64127;51.488;5.462;2023-02-01T03:17:04;5.80;99.90
75430;DHT22;64127;51.488;5.462;2023-02-01T03:19:51;5.80;99.90
75430;DHT22;64127;51.488;5.462;2023-02-01T03:22:27;5.80;99.90
75430;DHT22;64127;51.488;5.462;2023-02-01T03:25:09;5.80;99.90
75430;DHT22;64127;51.488;5.462;2023-02-01T03:30:52;5.80;99.90
75430;DHT22;64127;51.488;5.462;2023-02-01T03:33:26;5.80;99.90
75430;DHT22;64127;51.488;5.462;2023-02-01T03:39:27;5.80;99.90
75430;DHT22;64127;51.488;5.462;2023-02-01T03:42:03;5.80;99.90
75430;DHT22;64127;51.488;5.462;2023-02-01T03:44:45;5.90;99.90
75430;DHT22;64127;51.488;5.462;2023-02-01T03:47:28;5.90;99.90
75430;DHT22;64127;51.488;5.462;2023-02-01T03:50:12;5.90;99.90
75430;DHT22;64127;51.488;5.462;2023-02-01T03:53:02;5.90;99.90
75430;DHT22;64127;51.488;5.462;2023-02-01T03:55:40;6.00;99.90
75430;DHT22;64127;51.488;5.462;2023-02-01T03:58:16;6.00;99.90
75430;DHT22;64127;51.488;5.462;2023-02-01T04:00:56;6.00;99.90
75430;DHT22;64127;51.488;5.462;2023-02-01T04:03:29;6.00;99.90
75430;DHT22;64127;51.488;5.462;2023-02-01T04:06:01;6.00;99.90
75430;DHT22;64127;51.488;5.462;2023-02-01T04:08:33;6.00;99.90
75430;DHT22;64127;51.488;5.462;2023-02-01T04:11:05;6.00;99.90
75430;DHT22;64127;51.488;5.462;2023-02-01T04:13:37;6.00;99.90
75430;DHT22;64127;51.488;5.462;2023-02-01T04:16:10;6.00;99.90
75430;DHT22;64127;51.488;5.462;2023-02-01T04:18:42;6.10;99.90
75430;DHT22;64127;51.488;5.462;2023-02-01T04:21:14;6.10;99.90
75430;DHT22;64127;51.488;5.462;2023-02-01T04:23:46;6.10;99.90
75430;DHT22;64127;51.488;5.462;2023-02-01T04:26:18;6.10;99.90
75430;DHT22;64127;51.488;5.462;2023-02-01T04:28:51;6.10;99.90
75430;DHT22;64127;51.488;5.462;2023-02-01T04:31:24;6.00;99.90
75430;DHT22;64127;51.488;5.462;2023-02-01T04:33:59;6.00;99.90
75430;DHT22;64127;51.488;5.462;2023-02-01T04:36:31;6.10;99.90
75430;DHT22;64127;51.488;5.462;2023-02-01T04:39:03;6.00;99.90
75430;DHT22;64127;51.488;5.462;2023-02-01T04:41:35;6.00;99.90
75430;DHT22;64127;51.488;5.462;2023-02-01T04:44:13;6.00;99.90
75430;DHT22;64127;51.488;5.462;2023-02-01T04:46:47;6.00;99.90
75430;DHT22;64127;51.488;5.462;2023-02-01T04:49:20;6.00;99.90
75430;DHT22;64127;51.488;5.462;2023-02-01T04:51:53;6.00;99.90
75430;DHT22;64127;51.488;5.462;2023-02-01T04:54:25;6.00;99.90
75430;DHT22;64127;51.488;5.462;2023-02-01T04:56:56;6.00;99.90
75430;DHT22;64127;51.488;5.462;2023-02-01T04:59:28;6.00;99.90
75430;DHT22;64127;51.488;5.462;2023-02-01T05:02:00;6.00;99.90
75430;DHT22;64127;51.488;5.462;2023-02-01T05:04:33;6.00;99.90
75430;DHT22;64127;51.488;5.462;2023-02-01T05:07:05;6.00;99.90
75430;DHT22;64127;51.488;5.462;2023-02-01T05:09:37;6.00;99.90
75430;DHT22;64127;51.488;5.462;2023-02-01T05:12:10;5.90;99.90
75430;DHT22;64127;51.488;5.462;2023-02-01T05:15:00;6.00;99.90
75430;DHT22;64127;51.488;5.462;2023-02-01T05:17:32;5.90;99.90
75430;DHT22;64127;51.488;5.462;2023-02-01T05:20:04;6.00;99.90
75430;DHT22;64127;51.488;5.462;2023-02-01T05:22:37;6.00;99.90
75430;DHT22;64127;51.488;5.462;2023-02-01T05:25:09;6.00;99.90
75430;DHT22;64127;51.488;5.462;2023-02-01T05:27:41;6.00;99.90
75430;DHT22;64127;51.488;5.462;2023-02-01T05:30:14;6.00;99.90
75430;DHT22;64127;51.488;5.462;2023-02-01T05:32:50;6.00;99.90
75430;DHT22;64127;51.488;5.462;2023-02-01T05:35:22;6.00;99.90
75430;DHT22;64127;51.488;5.462;2023-02-01T05:37:54;6.10;99.90
75430;DHT22;64127;51.488;5.462;2023-02-01T05:40:26;6.00;99.90
75430;DHT22;64127;51.488;5.462;2023-02-01T05:42:58;6.10;99.90
75430;DHT22;64127;51.488;5.462;2023-02-01T05:45:30;6.10;99.90
75430;DHT22;64127;51.488;5.462;2023-02-01T05:48:02;6.10;99.90
75430;DHT22;64127;51.488;5.462;2023-02-01T05:50:34;6.10;99.90
75430;DHT22;64127;51.488;5.462;2023-02-01T05:53:06;6.10;99.90
75430;DHT22;64127;51.488;5.462;2023-02-01T05:55:38;6.10;99.90
75430;DHT22;64127;51.488;5.462;2023-02-01T05:58:10;6.20;99.90
75430;DHT22;64127;51.488;5.462;2023-02-01T06:00:43;6.20;99.90
75430;DHT22;64127;51.488;5.462;2023-02-01T06:03:15;6.20;99.90
75430;DHT22;64127;51.488;5.462;2023-02-01T06:05:47;6.20;99.90
75430;DHT22;64127;51.488;5.462;2023-02-01T06:08:19;6.20;99.90
75430;DHT22;64127;51.488;5.462;2023-02-01T06:11:00;6.20;99.90
75430;DHT22;64127;51.488;5.462;2023-02-01T06:13:36;6.20;99.90
75430;DHT22;64127;51.488;5.462;2023-02-01T06:16:10;6.20;99.90
75430;DHT22;64127;51.488;5.462;2023-02-01T06:18:42;6.20;99.90
75430;DHT22;64127;51.488;5.462;2023-02-01T06:21:14;6.20;99.90
75430;DHT22;64127;51.488;5.462;2023-02-01T06:23:55;6.20;99.90
75430;DHT22;64127;51.488;5.462;2023-02-01T06:26:29;6.30;99.90
75430;DHT22;64127;51.488;5.462;2023-02-01T06:29:01;6.30;99.90
75430;DHT22;64127;51.488;5.462;2023-02-01T06:31:33;6.30;99.90
75430;DHT22;64127;51.488;5.462;2023-02-01T06:34:05;6.30;99.90
75430;DHT22;64127;51.488;5.462;2023-02-01T06:36:37;6.30;99.90
75430;DHT22;64127;51.488;5.462;2023-02-01T06:39:10;6.30;99.90
75430;DHT22;64127;51.488;5.462;2023-02-01T06:41:48;6.30;99.90
75430;DHT22;64127;51.488;5.462;2023-02-01T06:44:20;6.30;99.90
75430;DHT22;64127;51.488;5.462;2023-02-01T06:46:52;6.30;99.90
75430;DHT22;64127;51.488;5.462;2023-02-01T06:49:25;6.30;99.90
75430;DHT22;64127;51.488;5.462;2023-02-01T06:51:56;6.40;99.90
75430;DHT22;64127;51.488;5.462;2023-02-01T06:54:31;6.40;99.90
75430;DHT22;64127;51.488;5.462;2023-02-01T06:57:05;6.40;99.90
75430;DHT22;64127;51.488;5.462;2023-02-01T06:59:37;6.40;99.90
75430;DHT22;64127;51.488;5.462;2023-02-01T07:02:12;6.50;99.90
75430;DHT22;64127;51.488;5.462;2023-02-01T07:04:44;6.50;99.90
75430;DHT22;64127;51.488;5.462;2023-02-01T07:07:16;6.50;99.90
75430;DHT22;64127;51.488;5.462;2023-02-01T07:09:51;6.50;99.90
75430;DHT22;64127;51.488;5.462;2023-02-01T07:12:23;6.50;99.90
75430;DHT22;64127;51.488;5.462;2023-02-01T07:14:55;6.50;99.90
75430;DHT22;64127;51.488;5.462;2023-02-01T07:17:28;6.50;99.90
75430;DHT22;64127;51.488;5.462;2023-02-01T07:20:01;6.50;99.90
75430;DHT22;64127;51.488;5.462;2023-02-01T07:22:33;6.50;99.90
75430;DHT22;64127;51.488;5.462;2023-02-01T07:25:05;6.50;99.90
75430;DHT22;64127;51.488;5.462;2023-02-01T07:27:38;6.50;99.90
75430;DHT22;64127;51.488;5.462;2023-02-01T07:30:10;6.50;99.90
75430;DHT22;64127;51.488;5.462;2023-02-01T07:32:43;6.50;99.90
75430;DHT22;64127;51.488;5.462;2023-02-01T07:35:15;6.50;99.90
75430;DHT22;64127;51.488;5.462;2023-02-01T07:37:47;6.50;99.90
75430;DHT22;64127;51.488;5.462;2023-02-01T07:40:19;6.50;99.90
75430;DHT22;64127;51.488;5.462;2023-02-01T07:42:56;6.50;99.90
75430;DHT22;64127;51.488;5.462;2023-02-01T07:45:28;6.40;99.90
75430;DHT22;64127;51.488;5.462;2023-02-01T07:48:01;6.50;99.90
75430;DHT22;64127;51.488;5.462;2023-02-01T07:50:33;6.50;99.90
75430;DHT22;64127;51.488;5.462;2023-02-01T07:53:05;6.50;99.90
75430;DHT22;64127;51.488;5.462;2023-02-01T07:55:38;6.40;99.90
75430;DHT22;64127;51.488;5.462;2023-02-01T07:58:11;6.40;99.90
75430;DHT22;64127;51.488;5.462;2023-02-01T08:00:43;6.40;99.90
75430;DHT22;64127;51.488;5.462;2023-02-01T08:03:33;6.50;99.90
75430;DHT22;64127;51.488;5.462;2023-02-01T08:06:05;6.50;99.90
75430;DHT22;64127;51.488;5.462;2023-02-01T08:08:38;6.50;99.90
75430;DHT22;64127;51.488;5.462;2023-02-01T08:11:09;6.50;99.90
75430;DHT22;64127;51.488;5.462;2023-02-01T08:13:42;6.60;99.90
75430;DHT22;64127;51.488;5.462;2023-02-01T08:16:16;6.60;99.90
75430;DHT22;64127;51.488;5.462;2023-02-01T08:18:50;6.70;99.90
75430;DHT22;64127;51.488;5.462;2023-02-01T08:21:26;6.70;99.90
75430;DHT22;64127;51.488;5.462;2023-02-01T08:24:09;6.80;99.90
75430;DHT22;64127;51.488;5.462;2023-02-01T08:26:41;6.90;99.90
75430;DHT22;64127;51.488;5.462;2023-02-01T08:29:13;6.90;99.90
75430;DHT22;64127;51.488;5.462;2023-02-01T08:31:46;6.90;99.90
75430;DHT22;64127;51.488;5.462;2023-02-01T08:34:18;7.00;99.90
75430;DHT22;64127;51.488;5.462;2023-02-01T08:36:52;7.00;99.90
75430;DHT22;64127;51.488;5.462;2023-02-01T08:39:28;7.00;99.90
75430;DHT22;64127;51.488;5.462;2023-02-01T08:42:00;7.10;99.90
75430;DHT22;64127;51.488;5.462;2023-02-01T08:44:51;7.20;99.90
75430;DHT22;64127;51.488;5.462;2023-02-01T08:47:23;7.30;99.90
75430;DHT22;64127;51.488;5.462;2023-02-01T08:49:55;7.30;99.90
75430;DHT22;64127;51.488;5.462;2023-02-01T08:52:27;7.30;99.90
75430;DHT22;64127;51.488;5.462;2023-02-01T08:54:59;7.30;99.90
75430;DHT22;64127;51.488;5.462;2023-02-01T08:57:32;7.30;99.90
75430;DHT22;64127;51.488;5.462;2023-02-01T09:00:06;7.30;99.90
75430;DHT22;64127;51.488;5.462;2023-02-01T09:02:42;7.30;99.90
75430;DHT22;64127;51.488;5.462;2023-02-01T09:05:14;7.30;99.90
75430;DHT22;64127;51.488;5.462;2023-02-01T09:07:48;7.40;99.90
75430;DHT22;64127;51.488;5.462;2023-02-01T09:10:20;7.40;99.90
75430;DHT22;64127;51.488;5.462;2023-02-01T09:13:05;7.40;99.90
75430;DHT22;64127;51.488;5.462;2023-02-01T09:15:37;7.50;99.90
75430;DHT22;64127;51.488;5.462;2023-02-01T09:18:09;7.50;99.90
75430;DHT22;64127;51.488;5.462;2023-02-01T09:20:41;7.50;99.90
75430;DHT22;64127;51.488;5.462;2023-02-01T09:23:13;7.60;99.90
75430;DHT22;64127;51.488;5.462;2023-02-01T09:25:46;7.70;99.90
75430;DHT22;64127;51.488;5.462;2023-02-01T09:28:22;7.90;99.90
75430;DHT22;64127;51.488;5.462;2023-02-01T09:30:58;8.00;99.90
75430;DHT22;64127;51.488;5.462;2023-02-01T09:33:31;8.10;99.90
75430;DHT22;64127;51.488;5.462;2023-02-01T09:36:04;8.20;99.90
75430;DHT22;64127;51.488;5.462;2023-02-01T09:38:37;8.10;99.90
75430;DHT22;64127;51.488;5.462;2023-02-01T09:44:49;8.10;99.90
75430;DHT22;64127;51.488;5.462;2023-02-01T09:47:26;8.20;99.90
75430;DHT22;64127;51.488;5.462;2023-02-01T09:50:21;8.10;99.90
75430;DHT22;64127;51.488;5.462;2023-02-01T09:53:12;8.20;99.90
75430;DHT22;64127;51.488;5.462;2023-02-01T09:55:53;8.10;99.90
75430;DHT22;64127;51.488;5.462;2023-02-01T09:58:36;8.10;99.90
75430;DHT22;64127;51.488;5.462;2023-02-01T10:01:21;8.20;99.90
75430;DHT22;64127;51.488;5.462;2023-02-01T10:04:05;8.20;99.90
75430;DHT22;64127;51.488;5.462;2023-02-01T10:12:54;8.90;99.90
75430;DHT22;64127;51.488;5.462;2023-02-01T10:15:52;9.20;99.90
75430;DHT22;64127;51.488;5.462;2023-02-01T10:18:57;9.40;99.90
75430;DHT22;64127;51.488;5.462;2023-02-01T10:21:46;9.50;99.90
75430;DHT22;64127;51.488;5.462;2023-02-01T10:24:47;9.70;99.90
75430;DHT22;64127;51.488;5.462;2023-02-01T10:27:37;10.10;99.90
75430;DHT22;64127;51.488;5.462;2023-02-01T10:30:21;10.30;99.90
75430;DHT22;64127;51.488;5.462;2023-02-01T10:32:57;10.10;99.90
75430;DHT22;64127;51.488;5.462;2023-02-01T10:35:45;10.00;99.90
75430;DHT22;64127;51.488;5.462;2023-02-01T10:38:31;9.70;99.90
75430;DHT22;64127;51.488;5.462;2023-02-01T10:41:17;9.60;99.90
75430;DHT22;64127;51.488;5.462;2023-02-01T10:43:54;9.40;99.90
75430;DHT22;64127;51.488;5.462;2023-02-01T10:46:31;9.30;99.90
75430;DHT22;64127;51.488;5.462;2023-02-01T10:49:05;9.20;99.90
75430;DHT22;64127;51.488;5.462;2023-02-01T10:51:49;9.10;99.90
75430;DHT22;64127;51.488;5.462;2023-02-01T10:54:34;9.00;99.90
75430;DHT22;64127;51.488;5.462;2023-02-01T10:57:24;9.00;99.90
75430;DHT22;64127;51.488;5.462;2023-02-01T10:59:57;8.90;99.90
75430;DHT22;64127;51.488;5.462;2023-02-01T11:02:32;8.90;99.90
75430;DHT22;64127;51.488;5.462;2023-02-01T11:05:10;8.90;99.90
75430;DHT22;64127;51.488;5.462;2023-02-01T11:07:49;8.90;99.90
75430;DHT22;64127;51.488;5.462;2023-02-01T11:10:41;8.90;99.90
75430;DHT22;64127;51.488;5.462;2023-02-01T11:13:16;8.90;99.90
75430;DHT22;64127;51.488;5.462;2023-02-01T11:15:55;8.80;99.90
75430;DHT22;64127;51.488;5.462;2023-02-01T11:18:35;8.80;99.90
75430;DHT22;64127;51.488;5.462;2023-02-01T11:21:09;8.80;99.90
75430;DHT22;64127;51.488;5.462;2023-02-01T11:23:44;8.80;99.90
75430;DHT22;64127;51.488;5.462;2023-02-01T11:26:25;8.80;99.90
75430;DHT22;64127;51.488;5.462;2023-02-01T11:29:05;8.70;99.90
75430;DHT22;64127;51.488;5.462;2023-02-01T11:31:45;8.70;99.90
75430;DHT22;64127;51.488;5.462;2023-02-01T11:34:21;8.70;99.90
75430;DHT22;64127;51.488;5.462;2023-02-01T11:37:00;8.70;99.90
75430;DHT22;64127;51.488;5.462;2023-02-01T11:39:34;8.70;99.90
75430;DHT22;64127;51.488;5.462;2023-02-01T11:42:15;8.70;99.90
75430;DHT22;64127;51.488;5.462;2023-02-01T11:44:48;8.80;99.90
75430;DHT22;64127;51.488;5.462;2023-02-01T11:47:29;8.80;99.90
75430;DHT22;64127;51.488;5.462;2023-02-01T11:50:15;8.80;99.90
75430;DHT22;64127;51.488;5.462;2023-02-01T11:59:16;8.80;99.90
75430;DHT22;64127;51.488;5.462;2023-02-01T12:08:26;8.80;99.90
75430;DHT22;64127;51.488;5.462;2023-02-01T12:35:28;8.80;99.90
75430;DHT22;64127;51.488;5.462;2023-02-01T12:44:50;8.80;99.90
75430;DHT22;64127;51.488;5.462;2023-02-01T12:47:43;8.80;99.90
75430;DHT22;64127;51.488;5.462;2023-02-01T12:50:28;8.80;99.90
75430;DHT22;64127;51.488;5.462;2023-02-01T12:53:14;8.90;99.90
75430;DHT22;64127;51.488;5.462;2023-02-01T12:56:02;8.90;99.90
75430;DHT22;64127;51.488;5.462;2023-02-01T12:58:46;8.90;99.90
75430;DHT22;64127;51.488;5.462;2023-02-01T13:01:34;8.90;99.90
75430;DHT22;64127;51.488;5.462;2023-02-01T13:04:29;9.00;99.90
75430;DHT22;64127;51.488;5.462;2023-02-01T13:09:59;9.00;99.90
75430;DHT22;64127;51.488;5.462;2023-02-01T13:12:43;9.10;99.90
75430;DHT22;64127;51.488;5.462;2023-02-01T13:15:33;9.10;99.90
75430;DHT22;64127;51.488;5.462;2023-02-01T13:18:18;9.10;99.90
75430;DHT22;64127;51.488;5.462;2023-02-01T13:20:58;9.20;99.90
75430;DHT22;64127;51.488;5.462;2023-02-01T13:23:39;9.10;99.90
75430;DHT22;64127;51.488;5.462;2023-02-01T13:26:12;9.10;99.90
75430;DHT22;64127;51.488;5.462;2023-02-01T13:28:46;9.10;99.90
75430;DHT22;64127;51.488;5.462;2023-02-01T13:38:35;9.10;99.90
75430;DHT22;64127;51.488;5.462;2023-02-01T13:41:14;9.20;99.90
75430;DHT22;64127;51.488;5.462;2023-02-01T13:44:34;9.20;99.90
75430;DHT22;64127;51.488;5.462;2023-02-01T13:47:35;9.20;99.90
75430;DHT22;64127;51.488;5.462;2023-02-01T13:56:20;9.20;99.90
75430;DHT22;64127;51.488;5.462;2023-02-01T13:58:55;9.30;99.90
75430;DHT22;64127;51.488;5.462;2023-02-01T14:07:22;9.30;99.90
75430;DHT22;64127;51.488;5.462;2023-02-01T14:09:54;9.30;99.90
75430;DHT22;64127;51.488;5.462;2023-02-01T14:12:45;9.30;99.90
75430;DHT22;64127;51.488;5.462;2023-02-01T14:15:24;9.30;99.90
75430;DHT22;64127;51.488;5.462;2023-02-01T14:17:58;9.20;99.90
75430;DHT22;64127;51.488;5.462;2023-02-01T14:20:41;9.30;99.90
75430;DHT22;64127;51.488;5.462;2023-02-01T14:23:20;9.30;99.90
75430;DHT22;64127;51.488;5.462;2023-02-01T14:26:03;9.30;99.90
75430;DHT22;64127;51.488;5.462;2023-02-01T14:28:45;9.30;99.90
75430;DHT22;64127;51.488;5.462;2023-02-01T14:31:48;9.30;99.90
75430;DHT22;64127;51.488;5.462;2023-02-01T14:34:31;9.30;99.90
75430;DHT22;64127;51.488;5.462;2023-02-01T14:50:40;9.20;99.90
75430;DHT22;64127;51.488;5.462;2023-02-01T14:53:16;9.20;99.90
75430;DHT22;64127;51.488;5.462;2023-02-01T14:56:04;9.20;99.90
75430;DHT22;64127;51.488;5.462;2023-02-01T15:01:33;9.30;99.90
75430;DHT22;64127;51.488;5.462;2023-02-01T15:04:12;9.20;99.90
75430;DHT22;64127;51.488;5.462;2023-02-01T15:07:03;9.20;99.90
75430;DHT22;64127;51.488;5.462;2023-02-01T15:09:46;9.20;99.90
75430;DHT22;64127;51.488;5.462;2023-02-01T15:12:25;9.20;99.90
75430;DHT22;64127;51.488;5.462;2023-02-01T15:15:14;9.20;99.90
75430;DHT22;64127;51.488;5.462;2023-02-01T15:17:59;9.20;99.90
75430;DHT22;64127;51.488;5.462;2023-02-01T15:20:34;9.20;99.90
75430;DHT22;64127;51.488;5.462;2023-02-01T15:23:17;9.20;99.90
75430;DHT22;64127;51.488;5.462;2023-02-01T15:25:50;9.20;99.90
75430;DHT22;64127;51.488;5.462;2023-02-01T15:28:25;9.20;99.90
75430;DHT22;64127;51.488;5.462;2023-02-01T15:31:04;9.20;99.90
75430;DHT22;64127;51.488;5.462;2023-02-01T15:33:37;9.20;99.90
75430;DHT22;64127;51.488;5.462;2023-02-01T15:36:11;9.20;99.90
75430;DHT22;64127;51.488;5.462;2023-02-01T15:42:12;9.10;99.90
75430;DHT22;64127;51.488;5.462;2023-02-01T15:44:50;9.20;99.90
75430;DHT22;64127;51.488;5.462;2023-02-01T15:47:26;9.10;99.90
75430;DHT22;64127;51.488;5.462;2023-02-01T15:50:01;9.10;99.90
75430;DHT22;64127;51.488;5.462;2023-02-01T15:52:39;9.10;99.90
75430;DHT22;64127;51.488;5.462;2023-02-01T15:55:36;9.10;99.90
75430;DHT22;64127;51.488;5.462;2023-02-01T15:58:17;9.10;99.90
75430;DHT22;64127;51.488;5.462;2023-02-01T16:00:53;9.10;99.90
75430;DHT22;64127;51.488;5.462;2023-02-01T16:03:36;9.10;99.90
75430;DHT22;64127;51.488;5.462;2023-02-01T16:06:32;9.10;99.90
75430;DHT22;64127;51.488;5.462;2023-02-01T16:09:12;9.10;99.90
75430;DHT22;64127;51.488;5.462;2023-02-01T16:14:20;9.10;99.90
75430;DHT22;64127;51.488;5.462;2023-02-01T16:16:58;9.00;99.90
75430;DHT22;64127;51.488;5.462;2023-02-01T16:19:30;9.00;99.90
75430;DHT22;64127;51.488;5.462;2023-02-01T16:22:03;9.00;99.90
75430;DHT22;64127;51.488;5.462;2023-02-01T16:24:35;9.00;99.90
75430;DHT22;64127;51.488;5.462;2023-02-01T16:27:07;9.00;99.90
75430;DHT22;64127;51.488;5.462;2023-02-01T16:29:39;8.90;99.90
75430;DHT22;64127;51.488;5.462;2023-02-01T16:32:17;8.90;99.90
75430;DHT22;64127;51.488;5.462;2023-02-01T16:34:51;8.90;99.90
75430;DHT22;64127;51.488;5.462;2023-02-01T16:37:25;8.90;99.90
75430;DHT22;64127;51.488;5.462;2023-02-01T16:39:59;8.90;99.90
75430;DHT22;64127;51.488;5.462;2023-02-01T16:42:31;8.80;99.90
75430;DHT22;64127;51.488;5.462;2023-02-01T16:45:03;8.80;99.90
75430;DHT22;64127;51.488;5.462;2023-02-01T16:47:37;8.80;99.90
75430;DHT22;64127;51.488;5.462;2023-02-01T16:50:17;8.80;99.90
75430;DHT22;64127;51.488;5.462;2023-02-01T16:52:54;8.80;99.90
75430;DHT22;64127;51.488;5.462;2023-02-01T16:55:26;8.80;99.90
75430;DHT22;64127;51.488;5.462;2023-02-01T16:57:59;8.80;99.90
75430;DHT22;64127;51.488;5.462;2023-02-01T17:00:31;8.80;99.90
75430;DHT22;64127;51.488;5.462;2023-02-01T17:03:10;8.80;99.90
75430;DHT22;64127;51.488;5.462;2023-02-01T17:05:51;8.80;99.90
75430;DHT22;64127;51.488;5.462;2023-02-01T17:08:34;8.80;99.90
75430;DHT22;64127;51.488;5.462;2023-02-01T17:11:09;8.90;99.90
75430;DHT22;64127;51.488;5.462;2023-02-01T17:13:43;8.90;99.90
75430;DHT22;64127;51.488;5.462;2023-02-01T17:16:27;8.80;99.90
75430;DHT22;64127;51.488;5.462;2023-02-01T17:19:08;8.80;99.90
75430;DHT22;64127;51.488;5.462;2023-02-01T17:21:47;8.90;99.90
75430;DHT22;64127;51.488;5.462;2023-02-01T17:24:25;8.80;99.90
75430;DHT22;64127;51.488;5.462;2023-02-01T17:27:17;8.80;99.90
75430;DHT22;64127;51.488;5.462;2023-02-01T17:29:50;8.90;99.90
75430;DHT22;64127;51.488;5.462;2023-02-01T17:32:23;8.80;99.90
75430;DHT22;64127;51.488;5.462;2023-02-01T17:34:56;8.80;99.90
75430;DHT22;64127;51.488;5.462;2023-02-01T17:37:31;8.80;99.90
75430;DHT22;64127;51.488;5.462;2023-02-01T17:40:05;8.80;99.90
75430;DHT22;64127;51.488;5.462;2023-02-01T17:42:38;8.80;99.90
75430;DHT22;64127;51.488;5.462;2023-02-01T17:45:18;8.80;99.90
75430;DHT22;64127;51.488;5.462;2023-02-01T17:47:55;8.80;99.90
75430;DHT22;64127;51.488;5.462;2023-02-01T17:50:30;8.80;99.90
75430;DHT22;64127;51.488;5.462;2023-02-01T17:53:04;8.80;99.90
75430;DHT22;64127;51.488;5.462;2023-02-01T17:55:43;8.90;99.90
75430;DHT22;64127;51.488;5.462;2023-02-01T17:58:17;8.80;99.90
75430;DHT22;64127;51.488;5.462;2023-02-01T18:00:50;8.80;99.90
75430;DHT22;64127;51.488;5.462;2023-02-01T18:03:26;8.90;99.90
75430;DHT22;64127;51.488;5.462;2023-02-01T18:06:01;8.80;99.90
75430;DHT22;64127;51.488;5.462;2023-02-01T18:08:34;8.90;99.90
75430;DHT22;64127;51.488;5.462;2023-02-01T18:11:14;8.80;99.90
75430;DHT22;64127;51.488;5.462;2023-02-01T18:13:49;8.80;99.90
75430;DHT22;64127;51.488;5.462;2023-02-01T18:16:26;8.80;99.90
75430;DHT22;64127;51.488;5.462;2023-02-01T18:18:59;8.80;99.90
75430;DHT22;64127;51.488;5.462;2023-02-01T18:21:38;8.90;99.90
75430;DHT22;64127;51.488;5.462;2023-02-01T18:24:14;8.90;99.90
75430;DHT22;64127;51.488;5.462;2023-02-01T18:26:47;8.90;99.90
75430;DHT22;64127;51.488;5.462;2023-02-01T18:29:19;8.90;99.90
75430;DHT22;64127;51.488;5.462;2023-02-01T18:31:51;8.90;99.90
75430;DHT22;64127;51.488;5.462;2023-02-01T18:34:23;8.90;99.90
75430;DHT22;64127;51.488;5.462;2023-02-01T18:36:57;8.90;99.90
75430;DHT22;64127;51.488;5.462;2023-02-01T18:39:29;8.90;99.90
75430;DHT22;64127;51.488;5.462;2023-02-01T18:42:01;8.90;99.90
75430;DHT22;64127;51.488;5.462;2023-02-01T18:44:34;9.00;99.90
75430;DHT22;64127;51.488;5.462;2023-02-01T18:47:08;8.90;99.90
75430;DHT22;64127;51.488;5.462;2023-02-01T18:49:40;9.00;99.90
75430;DHT22;64127;51.488;5.462;2023-02-01T18:52:13;9.00;99.90
75430;DHT22;64127;51.488;5.462;2023-02-01T18:54:45;9.00;99.90
75430;DHT22;64127;51.488;5.462;2023-02-01T18:57:30;9.00;99.90